sensor_id;sensor_type;location;lat;lon;timestamp;P1;durP1;ratioP1;P2;durP2;ratioP2
72569;SDS011;60594;50.204;8.844;2022-08-18T00:02:13;10.20;;;6.82;;
72569;SDS011;60594;50.204;8.844;2022-08-18T00:04:42;10.98;;;6.03;;
72569;SDS011;60594;50.204;8.844;2022-08-18T00:07:11;10.07;;;6.75;;
72569;SDS011;60594;50.204;8.844;2022-08-18T00:09:41;8.88;;;6.22;;
72569;SDS011;60594;50.204;8.844;2022-08-18T00:12:12;11.70;;;6.63;;
72569;SDS011;60594;50.204;8.844;2022-08-18T00:14:44;9.35;;;6.18;;
72569;SDS011;60594;50.204;8.844;2022-08-18T00:17:11;9.68;;;6.80;;
72569;SDS011;60594;50.204;8.844;2022-08-18T00:19:38;9.23;;;5.65;;
72569;SDS011;60594;50.204;8.844;2022-08-18T00:22:06;10.55;;;6.47;;
72569;SDS011;60594;50.204;8.844;2022-08-18T00:24:33;8.73;;;5.82;;
72569;SDS011;60594;50.204;8.844;2022-08-18T00:27:00;9.48;;;5.95;;
72569;SDS011;60594;50.204;8.844;2022-08-18T00:29:26;11.98;;;6.63;;
72569;SDS011;60594;50.204;8.844;2022-08-18T00:31:53;9.60;;;6.30;;
72569;SDS011;60594;50.204;8.844;2022-08-18T00:34:19;8.68;;;5.85;;
72569;SDS011;60594;50.204;8.844;2022-08-18T00:36:46;9.55;;;5.97;;
72569;SDS011;60594;50.204;8.844;2022-08-18T00:39:12;9.25;;;6.00;;
72569;SDS011;60594;50.204;8.844;2022-08-18T00:41:39;9.55;;;6.50;;
72569;SDS011;60594;50.204;8.844;2022-08-18T00:44:06;11.13;;;6.35;;
72569;SDS011;60594;50.204;8.844;2022-08-18T00:46:34;10.00;;;6.25;;
72569;SDS011;60594;50.204;8.844;2022-08-18T00:49:03;9.73;;;6.35;;
72569;SDS011;60594;50.204;8.844;2022-08-18T00:51:41;9.88;;;6.70;;
72569;SDS011;60594;50.204;8.844;2022-08-18T00:54:15;9.82;;;6.50;;
72569;SDS011;60594;50.204;8.844;2022-08-18T00:56:54;8.57;;;6.13;;
72569;SDS011;60594;50.204;8.844;2022-08-18T01:02:17;9.77;;;6.03;;
72569;SDS011;60594;50.204;8.844;2022-08-18T01:05:00;8.48;;;6.47;;
72569;SDS011;60594;50.204;8.844;2022-08-18T01:07:41;10.02;;;6.05;;
72569;SDS011;60594;50.204;8.844;2022-08-18T01:10:16;9.77;;;6.47;;
72569;SDS011;60594;50.204;8.844;2022-08-18T01:12:47;9.20;;;6.28;;
72569;SDS011;60594;50.204;8.844;2022-08-18T01:15:17;7.85;;;5.70;;
72569;SDS011;60594;50.204;8.844;2022-08-18T01:17:44;12.23;;;6.90;;
72569;SDS011;60594;50.204;8.844;2022-08-18T01:20:42;8.70;;;5.88;;
72569;SDS011;60594;50.204;8.844;2022-08-18T01:23:36;8.30;;;5.15;;
72569;SDS011;60594;50.204;8.844;2022-08-18T01:26:03;7.93;;;5.38;;
72569;SDS011;60594;50.204;8.844;2022-08-18T01:28:31;8.25;;;5.32;;
72569;SDS011;60594;50.204;8.844;2022-08-18T01:31:02;9.73;;;5.38;;
72569;SDS011;60594;50.204;8.844;2022-08-18T01:33:34;8.80;;;5.65;;
72569;SDS011;60594;50.204;8.844;2022-08-18T01:36:18;8.70;;;5.68;;
72569;SDS011;60594;50.204;8.844;2022-08-18T01:38:48;7.47;;;4.90;;
72569;SDS011;60594;50.204;8.844;2022-08-18T01:41:17;8.82;;;5.18;;
72569;SDS011;60594;50.204;8.844;2022-08-18T01:43:46;11.18;;;5.45;;
72569;SDS011;60594;50.204;8.844;2022-08-18T01:46:18;9.10;;;5.57;;
72569;SDS011;60594;50.204;8.844;2022-08-18T01:48:46;9.15;;;5.35;;
72569;SDS011;60594;50.204;8.844;2022-08-18T01:53:41;8.10;;;5.32;;
72569;SDS011;60594;50.204;8.844;2022-08-18T01:56:08;9.07;;;5.95;;
72569;SDS011;60594;50.204;8.844;2022-08-18T01:58:35;9.90;;;5.95;;
72569;SDS011;60594;50.204;8.844;2022-08-18T02:01:02;9.32;;;6.03;;
72569;SDS011;60594;50.204;8.844;2022-08-18T02:03:33;10.38;;;5.93;;
72569;SDS011;60594;50.204;8.844;2022-08-18T02:06:03;10.40;;;6.15;;
72569;SDS011;60594;50.204;8.844;2022-08-18T02:08:34;12.38;;;5.85;;
72569;SDS011;60594;50.204;8.844;2022-08-18T02:11:00;8.82;;;5.57;;
72569;SDS011;60594;50.204;8.844;2022-08-18T02:13:28;9.68;;;6.15;;
72569;SDS011;60594;50.204;8.844;2022-08-18T02:15:55;10.98;;;6.10;;
72569;SDS011;60594;50.204;8.844;2022-08-18T02:18:23;8.13;;;5.88;;
72569;SDS011;60594;50.204;8.844;2022-08-18T02:20:53;8.60;;;5.90;;
72569;SDS011;60594;50.204;8.844;2022-08-18T02:23:20;8.70;;;5.53;;
72569;SDS011;60594;50.204;8.844;2022-08-18T02:25:47;10.98;;;6.75;;
72569;SDS011;60594;50.204;8.844;2022-08-18T02:28:15;9.48;;;5.95;;
72569;SDS011;60594;50.204;8.844;2022-08-18T02:30:42;9.15;;;6.10;;
72569;SDS011;60594;50.204;8.844;2022-08-18T02:33:10;8.95;;;6.13;;
72569;SDS011;60594;50.204;8.844;2022-08-18T02:35:36;9.80;;;6.38;;
72569;SDS011;60594;50.204;8.844;2022-08-18T02:38:04;9.35;;;5.68;;
72569;SDS011;60594;50.204;8.844;2022-08-18T02:40:33;8.95;;;5.85;;
72569;SDS011;60594;50.204;8.844;2022-08-18T02:43:07;8.63;;;5.65;;
72569;SDS011;60594;50.204;8.844;2022-08-18T02:45:38;11.35;;;6.22;;
72569;SDS011;60594;50.204;8.844;2022-08-18T02:48:05;9.25;;;5.80;;
72569;SDS011;60594;50.204;8.844;2022-08-18T02:50:33;9.05;;;5.90;;
72569;SDS011;60594;50.204;8.844;2022-08-18T02:53:08;9.02;;;5.75;;
72569;SDS011;60594;50.204;8.844;2022-08-18T02:55:34;8.32;;;6.05;;
72569;SDS011;60594;50.204;8.844;2022-08-18T02:58:01;8.05;;;5.68;;
72569;SDS011;60594;50.204;8.844;2022-08-18T03:00:28;8.60;;;5.55;;
72569;SDS011;60594;50.204;8.844;2022-08-18T03:02:55;9.40;;;6.20;;
72569;SDS011;60594;50.204;8.844;2022-08-18T03:05:23;8.68;;;5.93;;
72569;SDS011;60594;50.204;8.844;2022-08-18T03:07:50;9.25;;;5.53;;
72569;SDS011;60594;50.204;8.844;2022-08-18T03:10:17;10.25;;;6.43;;
72569;SDS011;60594;50.204;8.844;2022-08-18T03:12:46;9.32;;;5.85;;
72569;SDS011;60594;50.204;8.844;2022-08-18T03:15:13;9.45;;;6.25;;
72569;SDS011;60594;50.204;8.844;2022-08-18T03:17:41;9.25;;;6.25;;
72569;SDS011;60594;50.204;8.844;2022-08-18T03:20:11;10.13;;;6.15;;
72569;SDS011;60594;50.204;8.844;2022-08-18T03:22:37;8.60;;;5.78;;
72569;SDS011;60594;50.204;8.844;2022-08-18T03:25:04;9.13;;;5.55;;
72569;SDS011;60594;50.204;8.844;2022-08-18T03:27:31;8.07;;;5.47;;
72569;SDS011;60594;50.204;8.844;2022-08-18T03:32:25;9.43;;;5.35;;
72569;SDS011;60594;50.204;8.844;2022-08-18T03:34:52;9.52;;;5.82;;
72569;SDS011;60594;50.204;8.844;2022-08-18T03:37:22;8.52;;;5.55;;
72569;SDS011;60594;50.204;8.844;2022-08-18T03:39:49;9.32;;;5.88;;
72569;SDS011;60594;50.204;8.844;2022-08-18T03:42:19;9.90;;;6.07;;
72569;SDS011;60594;50.204;8.844;2022-08-18T03:44:49;8.27;;;5.60;;
72569;SDS011;60594;50.204;8.844;2022-08-18T03:47:15;9.77;;;5.78;;
72569;SDS011;60594;50.204;8.844;2022-08-18T03:49:43;9.15;;;5.82;;
72569;SDS011;60594;50.204;8.844;2022-08-18T03:52:11;9.10;;;6.30;;
72569;SDS011;60594;50.204;8.844;2022-08-18T03:54:37;8.77;;;5.68;;
72569;SDS011;60594;50.204;8.844;2022-08-18T03:57:06;8.80;;;5.50;;
72569;SDS011;60594;50.204;8.844;2022-08-18T03:59:33;10.27;;;6.38;;
72569;SDS011;60594;50.204;8.844;2022-08-18T04:02:02;9.48;;;6.22;;
72569;SDS011;60594;50.204;8.844;2022-08-18T04:04:30;8.00;;;5.65;;
72569;SDS011;60594;50.204;8.844;2022-08-18T04:07:02;9.00;;;6.10;;
72569;SDS011;60594;50.204;8.844;2022-08-18T04:09:32;8.95;;;5.40;;
72569;SDS011;60594;50.204;8.844;2022-08-18T04:12:02;8.85;;;6.00;;
72569;SDS011;60594;50.204;8.844;2022-08-18T04:14:38;9.57;;;6.20;;
72569;SDS011;60594;50.204;8.844;2022-08-18T04:17:07;8.23;;;5.65;;
72569;SDS011;60594;50.204;8.844;2022-08-18T04:19:34;8.80;;;5.85;;
72569;SDS011;60594;50.204;8.844;2022-08-18T04:22:03;9.60;;;6.13;;
72569;SDS011;60594;50.204;8.844;2022-08-18T04:24:30;10.63;;;5.93;;
72569;SDS011;60594;50.204;8.844;2022-08-18T04:27:00;9.18;;;5.82;;
72569;SDS011;60594;50.204;8.844;2022-08-18T04:29:28;10.38;;;6.68;;
72569;SDS011;60594;50.204;8.844;2022-08-18T04:31:56;10.38;;;6.68;;
72569;SDS011;60594;50.204;8.844;2022-08-18T04:34:30;9.20;;;5.95;;
72569;SDS011;60594;50.204;8.844;2022-08-18T04:36:58;8.90;;;6.07;;
72569;SDS011;60594;50.204;8.844;2022-08-18T04:39:25;9.90;;;6.38;;
72569;SDS011;60594;50.204;8.844;2022-08-18T04:41:51;10.32;;;6.63;;
72569;SDS011;60594;50.204;8.844;2022-08-18T04:44:18;9.35;;;6.32;;
72569;SDS011;60594;50.204;8.844;2022-08-18T04:46:47;10.45;;;6.20;;
72569;SDS011;60594;50.204;8.844;2022-08-18T04:49:20;9.13;;;6.15;;
72569;SDS011;60594;50.204;8.844;2022-08-18T04:51:51;9.60;;;5.97;;
72569;SDS011;60594;50.204;8.844;2022-08-18T04:54:37;9.45;;;6.15;;
72569;SDS011;60594;50.204;8.844;2022-08-18T04:57:16;10.27;;;6.63;;
72569;SDS011;60594;50.204;8.844;2022-08-18T04:59:45;10.80;;;6.22;;
72569;SDS011;60594;50.204;8.844;2022-08-18T05:02:14;9.88;;;6.50;;
72569;SDS011;60594;50.204;8.844;2022-08-18T05:04:43;8.32;;;6.10;;
72569;SDS011;60594;50.204;8.844;2022-08-18T05:07:15;11.05;;;6.43;;
72569;SDS011;60594;50.204;8.844;2022-08-18T05:09:44;9.65;;;6.20;;
72569;SDS011;60594;50.204;8.844;2022-08-18T05:12:11;9.05;;;6.22;;
72569;SDS011;60594;50.204;8.844;2022-08-18T05:14:40;8.90;;;6.03;;
72569;SDS011;60594;50.204;8.844;2022-08-18T05:17:07;10.45;;;6.72;;
72569;SDS011;60594;50.204;8.844;2022-08-18T05:19:33;9.27;;;6.28;;
72569;SDS011;60594;50.204;8.844;2022-08-18T05:22:01;10.98;;;7.28;;
72569;SDS011;60594;50.204;8.844;2022-08-18T05:24:29;10.02;;;6.43;;
72569;SDS011;60594;50.204;8.844;2022-08-18T05:26:56;11.35;;;6.93;;
72569;SDS011;60594;50.204;8.844;2022-08-18T05:29:23;10.77;;;6.72;;
72569;SDS011;60594;50.204;8.844;2022-08-18T05:31:50;10.63;;;7.00;;
72569;SDS011;60594;50.204;8.844;2022-08-18T05:34:18;11.57;;;6.97;;
72569;SDS011;60594;50.204;8.844;2022-08-18T05:36:51;12.90;;;8.02;;
72569;SDS011;60594;50.204;8.844;2022-08-18T05:39:23;10.65;;;6.70;;
72569;SDS011;60594;50.204;8.844;2022-08-18T05:41:54;11.30;;;6.45;;
72569;SDS011;60594;50.204;8.844;2022-08-18T05:44:32;12.70;;;7.93;;
72569;SDS011;60594;50.204;8.844;2022-08-18T05:49:43;11.88;;;7.25;;
72569;SDS011;60594;50.204;8.844;2022-08-18T05:52:35;11.27;;;7.13;;
72569;SDS011;60594;50.204;8.844;2022-08-18T05:55:25;10.68;;;6.68;;
72569;SDS011;60594;50.204;8.844;2022-08-18T05:58:19;11.23;;;6.63;;
72569;SDS011;60594;50.204;8.844;2022-08-18T06:00:51;10.50;;;6.95;;
72569;SDS011;60594;50.204;8.844;2022-08-18T06:03:27;11.25;;;7.10;;
72569;SDS011;60594;50.204;8.844;2022-08-18T06:06:04;11.18;;;6.90;;
72569;SDS011;60594;50.204;8.844;2022-08-18T06:08:42;9.50;;;6.75;;
72569;SDS011;60594;50.204;8.844;2022-08-18T06:11:13;10.10;;;6.40;;
72569;SDS011;60594;50.204;8.844;2022-08-18T06:13:40;10.75;;;6.93;;
72569;SDS011;60594;50.204;8.844;2022-08-18T06:16:11;11.82;;;6.63;;
72569;SDS011;60594;50.204;8.844;2022-08-18T06:24:25;9.55;;;6.30;;
72569;SDS011;60594;50.204;8.844;2022-08-18T06:43:27;12.38;;;7.13;;
72569;SDS011;60594;50.204;8.844;2022-08-18T06:45:57;12.98;;;7.30;;
72569;SDS011;60594;50.204;8.844;2022-08-18T06:51:03;12.55;;;6.72;;
72569;SDS011;60594;50.204;8.844;2022-08-18T06:53:53;11.48;;;6.97;;
72569;SDS011;60594;50.204;8.844;2022-08-18T06:56:35;11.75;;;7.53;;
72569;SDS011;60594;50.204;8.844;2022-08-18T07:01:45;11.32;;;7.57;;
72569;SDS011;60594;50.204;8.844;2022-08-18T07:04:29;13.35;;;7.50;;
72569;SDS011;60594;50.204;8.844;2022-08-18T07:09:23;11.32;;;6.82;;
72569;SDS011;60594;50.204;8.844;2022-08-18T07:12:02;12.70;;;8.15;;
72569;SDS011;60594;50.204;8.844;2022-08-18T07:14:45;14.57;;;8.05;;
72569;SDS011;60594;50.204;8.844;2022-08-18T07:17:34;12.05;;;8.18;;
72569;SDS011;60594;50.204;8.844;2022-08-18T07:20:08;14.02;;;7.45;;
72569;SDS011;60594;50.204;8.844;2022-08-18T07:23:03;12.93;;;8.73;;
72569;SDS011;60594;50.204;8.844;2022-08-18T07:25:31;12.98;;;7.97;;
72569;SDS011;60594;50.204;8.844;2022-08-18T07:28:06;12.13;;;7.88;;
72569;SDS011;60594;50.204;8.844;2022-08-18T07:31:03;15.05;;;8.30;;
72569;SDS011;60594;50.204;8.844;2022-08-18T07:33:37;12.38;;;8.18;;
72569;SDS011;60594;50.204;8.844;2022-08-18T07:36:07;15.02;;;9.20;;
72569;SDS011;60594;50.204;8.844;2022-08-18T07:41:58;12.73;;;8.40;;
72569;SDS011;60594;50.204;8.844;2022-08-18T07:44:38;14.13;;;9.15;;
72569;SDS011;60594;50.204;8.844;2022-08-18T07:52:12;14.20;;;8.60;;
72569;SDS011;60594;50.204;8.844;2022-08-18T08:05:35;15.07;;;8.82;;
72569;SDS011;60594;50.204;8.844;2022-08-18T08:08:42;13.40;;;9.02;;
72569;SDS011;60594;50.204;8.844;2022-08-18T08:11:16;15.18;;;9.60;;
72569;SDS011;60594;50.204;8.844;2022-08-18T08:14:48;12.35;;;8.07;;
72569;SDS011;60594;50.204;8.844;2022-08-18T08:25:24;14.27;;;9.25;;
72569;SDS011;60594;50.204;8.844;2022-08-18T08:28:31;18.13;;;9.90;;
72569;SDS011;60594;50.204;8.844;2022-08-18T08:31:25;17.15;;;9.88;;
72569;SDS011;60594;50.204;8.844;2022-08-18T08:34:13;16.70;;;10.13;;
72569;SDS011;60594;50.204;8.844;2022-08-18T08:36:44;16.17;;;9.38;;
72569;SDS011;60594;50.204;8.844;2022-08-18T08:39:23;15.18;;;9.32;;
72569;SDS011;60594;50.204;8.844;2022-08-18T08:42:00;18.20;;;10.95;;
72569;SDS011;60594;50.204;8.844;2022-08-18T08:44:59;18.38;;;11.10;;
72569;SDS011;60594;50.204;8.844;2022-08-18T08:47:37;15.38;;;9.63;;
72569;SDS011;60594;50.204;8.844;2022-08-18T08:50:15;17.40;;;10.35;;
72569;SDS011;60594;50.204;8.844;2022-08-18T08:52:46;20.20;;;12.30;;
72569;SDS011;60594;50.204;8.844;2022-08-18T08:55:25;18.77;;;11.43;;
72569;SDS011;60594;50.204;8.844;2022-08-18T09:00:36;21.52;;;12.98;;
72569;SDS011;60594;50.204;8.844;2022-08-18T09:11:24;21.58;;;12.52;;
72569;SDS011;60594;50.204;8.844;2022-08-18T09:14:24;19.85;;;12.10;;
72569;SDS011;60594;50.204;8.844;2022-08-18T09:17:09;23.33;;;12.95;;
72569;SDS011;60594;50.204;8.844;2022-08-18T09:19:44;24.60;;;13.57;;
72569;SDS011;60594;50.204;8.844;2022-08-18T09:22:32;23.45;;;13.35;;
72569;SDS011;60594;50.204;8.844;2022-08-18T09:25:28;21.10;;;12.20;;
72569;SDS011;60594;50.204;8.844;2022-08-18T09:28:20;23.20;;;14.07;;
72569;SDS011;60594;50.204;8.844;2022-08-18T09:39:07;20.75;;;11.30;;
72569;SDS011;60594;50.204;8.844;2022-08-18T09:42:04;19.27;;;12.02;;
72569;SDS011;60594;50.204;8.844;2022-08-18T09:49:50;19.02;;;11.77;;
72569;SDS011;60594;50.204;8.844;2022-08-18T09:55:05;20.05;;;12.02;;
72569;SDS011;60594;50.204;8.844;2022-08-18T09:58:11;20.77;;;11.82;;
72569;SDS011;60594;50.204;8.844;2022-08-18T10:01:41;19.85;;;11.98;;
72569;SDS011;60594;50.204;8.844;2022-08-18T10:06:40;18.77;;;11.63;;
72569;SDS011;60594;50.204;8.844;2022-08-18T10:09:21;16.67;;;10.90;;
72569;SDS011;60594;50.204;8.844;2022-08-18T10:15:03;15.60;;;10.02;;
72569;SDS011;60594;50.204;8.844;2022-08-18T10:17:58;17.10;;;10.35;;
72569;SDS011;60594;50.204;8.844;2022-08-18T10:29:00;14.80;;;9.55;;
72569;SDS011;60594;50.204;8.844;2022-08-18T10:31:29;17.63;;;10.50;;
72569;SDS011;60594;50.204;8.844;2022-08-18T10:34:02;16.73;;;10.55;;
72569;SDS011;60594;50.204;8.844;2022-08-18T10:36:42;16.88;;;11.05;;
72569;SDS011;60594;50.204;8.844;2022-08-18T10:39:12;16.08;;;10.65;;
72569;SDS011;60594;50.204;8.844;2022-08-18T10:44:16;17.08;;;10.80;;
72569;SDS011;60594;50.204;8.844;2022-08-18T10:46:48;17.77;;;10.73;;
72569;SDS011;60594;50.204;8.844;2022-08-18T10:49:18;17.63;;;11.20;;
72569;SDS011;60594;50.204;8.844;2022-08-18T10:58:02;16.35;;;10.30;;
72569;SDS011;60594;50.204;8.844;2022-08-18T11:00:21;18.60;;;10.70;;
72569;SDS011;60594;50.204;8.844;2022-08-18T11:03:00;17.42;;;10.60;;
72569;SDS011;60594;50.204;8.844;2022-08-18T11:05:36;16.73;;;10.77;;
72569;SDS011;60594;50.204;8.844;2022-08-18T11:08:04;16.80;;;10.85;;
72569;SDS011;60594;50.204;8.844;2022-08-18T11:10:43;16.77;;;10.00;;
72569;SDS011;60594;50.204;8.844;2022-08-18T11:13:27;18.27;;;11.57;;
72569;SDS011;60594;50.204;8.844;2022-08-18T11:16:12;15.50;;;9.98;;
72569;SDS011;60594;50.204;8.844;2022-08-18T11:18:46;15.52;;;9.98;;
72569;SDS011;60594;50.204;8.844;2022-08-18T11:21:29;18.52;;;10.85;;
72569;SDS011;60594;50.204;8.844;2022-08-18T11:24:01;14.50;;;9.27;;
72569;SDS011;60594;50.204;8.844;2022-08-18T11:26:33;21.92;;;10.88;;
72569;SDS011;60594;50.204;8.844;2022-08-18T11:29:22;14.63;;;9.07;;
72569;SDS011;60594;50.204;8.844;2022-08-18T11:32:02;16.45;;;9.82;;
72569;SDS011;60594;50.204;8.844;2022-08-18T11:34:43;16.27;;;10.35;;
72569;SDS011;60594;50.204;8.844;2022-08-18T11:39:49;15.40;;;9.40;;
72569;SDS011;60594;50.204;8.844;2022-08-18T11:42:18;16.48;;;9.95;;
72569;SDS011;60594;50.204;8.844;2022-08-18T11:44:53;16.88;;;10.70;;
72569;SDS011;60594;50.204;8.844;2022-08-18T11:47:27;15.93;;;10.07;;
72569;SDS011;60594;50.204;8.844;2022-08-18T11:49:55;15.90;;;10.23;;
72569;SDS011;60594;50.204;8.844;2022-08-18T11:52:27;18.10;;;10.98;;
72569;SDS011;60594;50.204;8.844;2022-08-18T11:54:59;19.55;;;12.30;;
72569;SDS011;60594;50.204;8.844;2022-08-18T11:57:42;19.58;;;12.15;;
72569;SDS011;60594;50.204;8.844;2022-08-18T12:00:39;19.60;;;11.90;;
72569;SDS011;60594;50.204;8.844;2022-08-18T12:05:47;20.10;;;13.30;;
72569;SDS011;60594;50.204;8.844;2022-08-18T12:08:32;23.40;;;13.48;;
72569;SDS011;60594;50.204;8.844;2022-08-18T12:11:17;19.42;;;12.68;;
72569;SDS011;60594;50.204;8.844;2022-08-18T12:13:58;21.38;;;12.20;;
72569;SDS011;60594;50.204;8.844;2022-08-18T12:19:01;17.27;;;11.25;;
72569;SDS011;60594;50.204;8.844;2022-08-18T12:21:29;16.70;;;10.88;;
72569;SDS011;60594;50.204;8.844;2022-08-18T12:23:55;13.35;;;9.18;;
72569;SDS011;60594;50.204;8.844;2022-08-18T12:26:22;19.50;;;11.35;;
72569;SDS011;60594;50.204;8.844;2022-08-18T12:28:48;16.98;;;10.63;;
72569;SDS011;60594;50.204;8.844;2022-08-18T12:31:15;11.88;;;9.05;;
72569;SDS011;60594;50.204;8.844;2022-08-18T12:33:45;14.10;;;9.30;;
72569;SDS011;60594;50.204;8.844;2022-08-18T12:36:11;14.10;;;8.32;;
72569;SDS011;60594;50.204;8.844;2022-08-18T12:38:37;13.38;;;9.23;;
72569;SDS011;60594;50.204;8.844;2022-08-18T12:41:09;13.07;;;8.88;;
72569;SDS011;60594;50.204;8.844;2022-08-18T12:43:38;13.43;;;8.55;;
72569;SDS011;60594;50.204;8.844;2022-08-18T12:46:04;12.50;;;8.95;;
72569;SDS011;60594;50.204;8.844;2022-08-18T12:48:34;15.65;;;9.73;;
72569;SDS011;60594;50.204;8.844;2022-08-18T12:51:01;15.45;;;9.52;;
72569;SDS011;60594;50.204;8.844;2022-08-18T12:53:27;13.98;;;9.13;;
72569;SDS011;60594;50.204;8.844;2022-08-18T12:55:59;12.68;;;7.97;;
72569;SDS011;60594;50.204;8.844;2022-08-18T12:58:27;11.57;;;8.40;;
72569;SDS011;60594;50.204;8.844;2022-08-18T13:00:54;10.65;;;7.20;;
72569;SDS011;60594;50.204;8.844;2022-08-18T13:03:22;13.15;;;8.15;;
72569;SDS011;60594;50.204;8.844;2022-08-18T13:05:50;11.38;;;7.35;;
72569;SDS011;60594;50.204;8.844;2022-08-18T13:08:19;11.10;;;7.60;;
72569;SDS011;60594;50.204;8.844;2022-08-18T13:10:47;11.27;;;7.15;;
72569;SDS011;60594;50.204;8.844;2022-08-18T13:13:14;9.25;;;6.68;;
72569;SDS011;60594;50.204;8.844;2022-08-18T13:15:42;12.95;;;8.05;;
72569;SDS011;60594;50.204;8.844;2022-08-18T13:18:11;11.32;;;8.05;;
72569;SDS011;60594;50.204;8.844;2022-08-18T13:20:40;10.07;;;7.18;;
72569;SDS011;60594;50.204;8.844;2022-08-18T13:23:08;8.93;;;6.82;;
72569;SDS011;60594;50.204;8.844;2022-08-18T13:25:35;9.43;;;7.00;;
72569;SDS011;60594;50.204;8.844;2022-08-18T13:28:04;10.52;;;6.53;;
72569;SDS011;60594;50.204;8.844;2022-08-18T13:30:31;10.35;;;6.47;;
72569;SDS011;60594;50.204;8.844;2022-08-18T13:32:59;11.40;;;7.53;;
72569;SDS011;60594;50.204;8.844;2022-08-18T13:35:26;11.35;;;7.25;;
72569;SDS011;60594;50.204;8.844;2022-08-18T13:37:53;12.07;;;8.45;;
72569;SDS011;60594;50.204;8.844;2022-08-18T13:40:23;11.35;;;7.88;;
72569;SDS011;60594;50.204;8.844;2022-08-18T13:42:50;11.52;;;8.07;;
72569;SDS011;60594;50.204;8.844;2022-08-18T13:45:18;11.93;;;8.20;;
72569;SDS011;60594;50.204;8.844;2022-08-18T13:47:46;13.57;;;8.90;;
72569;SDS011;60594;50.204;8.844;2022-08-18T13:50:15;11.38;;;8.23;;
72569;SDS011;60594;50.204;8.844;2022-08-18T13:52:42;10.88;;;7.53;;
72569;SDS011;60594;50.204;8.844;2022-08-18T13:55:11;9.77;;;6.05;;
72569;SDS011;60594;50.204;8.844;2022-08-18T13:57:40;9.38;;;6.47;;
72569;SDS011;60594;50.204;8.844;2022-08-18T14:00:17;9.63;;;6.10;;
72569;SDS011;60594;50.204;8.844;2022-08-18T14:02:46;9.07;;;6.55;;
72569;SDS011;60594;50.204;8.844;2022-08-18T14:05:16;8.63;;;6.43;;
72569;SDS011;60594;50.204;8.844;2022-08-18T14:07:42;10.13;;;6.80;;
72569;SDS011;60594;50.204;8.844;2022-08-18T14:10:09;10.48;;;6.55;;
72569;SDS011;60594;50.204;8.844;2022-08-18T14:12:37;9.38;;;5.93;;
72569;SDS011;60594;50.204;8.844;2022-08-18T14:15:04;12.32;;;6.30;;
72569;SDS011;60594;50.204;8.844;2022-08-18T14:17:33;12.02;;;7.35;;
72569;SDS011;60594;50.204;8.844;2022-08-18T14:20:03;8.48;;;5.85;;
72569;SDS011;60594;50.204;8.844;2022-08-18T14:22:49;9.20;;;6.03;;
72569;SDS011;60594;50.204;8.844;2022-08-18T14:25:38;10.15;;;6.50;;
72569;SDS011;60594;50.204;8.844;2022-08-18T14:28:23;9.48;;;6.47;;
72569;SDS011;60594;50.204;8.844;2022-08-18T14:30:50;9.52;;;6.47;;
72569;SDS011;60594;50.204;8.844;2022-08-18T14:33:18;12.40;;;7.30;;
72569;SDS011;60594;50.204;8.844;2022-08-18T14:35:47;11.13;;;7.63;;
72569;SDS011;60594;50.204;8.844;2022-08-18T14:38:14;12.30;;;7.68;;
72569;SDS011;60594;50.204;8.844;2022-08-18T14:40:41;10.25;;;7.35;;
72569;SDS011;60594;50.204;8.844;2022-08-18T14:43:10;11.95;;;7.70;;
72569;SDS011;60594;50.204;8.844;2022-08-18T14:45:38;10.50;;;6.38;;
72569;SDS011;60594;50.204;8.844;2022-08-18T14:48:07;9.95;;;6.82;;
72569;SDS011;60594;50.204;8.844;2022-08-18T14:50:34;10.23;;;6.70;;
72569;SDS011;60594;50.204;8.844;2022-08-18T14:53:02;8.80;;;6.25;;
72569;SDS011;60594;50.204;8.844;2022-08-18T14:55:29;10.85;;;6.47;;
72569;SDS011;60594;50.204;8.844;2022-08-18T14:57:56;9.15;;;6.60;;
72569;SDS011;60594;50.204;8.844;2022-08-18T15:00:23;10.95;;;7.18;;
72569;SDS011;60594;50.204;8.844;2022-08-18T15:02:49;10.07;;;6.60;;
72569;SDS011;60594;50.204;8.844;2022-08-18T15:05:16;9.80;;;6.60;;
72569;SDS011;60594;50.204;8.844;2022-08-18T15:07:44;9.00;;;6.55;;
72569;SDS011;60594;50.204;8.844;2022-08-18T15:10:11;10.48;;;7.20;;
72569;SDS011;60594;50.204;8.844;2022-08-18T15:12:38;10.82;;;7.13;;
72569;SDS011;60594;50.204;8.844;2022-08-18T15:15:07;10.23;;;7.30;;
72569;SDS011;60594;50.204;8.844;2022-08-18T15:17:36;10.85;;;7.38;;
72569;SDS011;60594;50.204;8.844;2022-08-18T15:22:31;11.05;;;7.20;;
72569;SDS011;60594;50.204;8.844;2022-08-18T15:25:16;13.57;;;8.30;;
72569;SDS011;60594;50.204;8.844;2022-08-18T15:28:01;13.50;;;8.10;;
72569;SDS011;60594;50.204;8.844;2022-08-18T15:30:28;11.85;;;8.07;;
72569;SDS011;60594;50.204;8.844;2022-08-18T15:32:54;12.52;;;8.77;;
72569;SDS011;60594;50.204;8.844;2022-08-18T15:35:20;11.63;;;8.48;;
72569;SDS011;60594;50.204;8.844;2022-08-18T15:37:48;11.73;;;8.35;;
72569;SDS011;60594;50.204;8.844;2022-08-18T15:40:15;11.23;;;7.45;;
72569;SDS011;60594;50.204;8.844;2022-08-18T15:42:49;12.02;;;8.05;;
72569;SDS011;60594;50.204;8.844;2022-08-18T15:45:19;11.00;;;7.55;;
72569;SDS011;60594;50.204;8.844;2022-08-18T15:47:51;10.35;;;7.43;;
72569;SDS011;60594;50.204;8.844;2022-08-18T15:50:19;11.10;;;7.72;;
72569;SDS011;60594;50.204;8.844;2022-08-18T15:55:32;11.93;;;7.70;;
72569;SDS011;60594;50.204;8.844;2022-08-18T15:58:00;11.23;;;7.82;;
72569;SDS011;60594;50.204;8.844;2022-08-18T16:00:28;11.27;;;7.40;;
72569;SDS011;60594;50.204;8.844;2022-08-18T16:02:56;10.75;;;6.93;;
72569;SDS011;60594;50.204;8.844;2022-08-18T16:05:32;9.07;;;6.50;;
72569;SDS011;60594;50.204;8.844;2022-08-18T16:08:07;11.20;;;7.05;;
72569;SDS011;60594;50.204;8.844;2022-08-18T16:10:35;9.90;;;6.68;;
72569;SDS011;60594;50.204;8.844;2022-08-18T16:13:04;9.95;;;6.70;;
72569;SDS011;60594;50.204;8.844;2022-08-18T16:15:36;11.02;;;6.95;;
72569;SDS011;60594;50.204;8.844;2022-08-18T16:18:05;9.95;;;7.05;;
72569;SDS011;60594;50.204;8.844;2022-08-18T16:20:33;9.75;;;6.47;;
72569;SDS011;60594;50.204;8.844;2022-08-18T16:25:27;8.23;;;5.95;;
72569;SDS011;60594;50.204;8.844;2022-08-18T16:27:54;10.63;;;6.82;;
72569;SDS011;60594;50.204;8.844;2022-08-18T16:30:24;10.82;;;6.50;;
72569;SDS011;60594;50.204;8.844;2022-08-18T16:32:52;9.57;;;6.53;;
72569;SDS011;60594;50.204;8.844;2022-08-18T16:35:19;8.82;;;6.65;;
72569;SDS011;60594;50.204;8.844;2022-08-18T16:37:47;10.68;;;6.43;;
72569;SDS011;60594;50.204;8.844;2022-08-18T16:40:15;9.95;;;7.10;;
72569;SDS011;60594;50.204;8.844;2022-08-18T16:42:44;10.18;;;7.07;;
72569;SDS011;60594;50.204;8.844;2022-08-18T16:45:11;11.43;;;7.38;;
72569;SDS011;60594;50.204;8.844;2022-08-18T16:47:38;11.30;;;7.63;;
72569;SDS011;60594;50.204;8.844;2022-08-18T16:50:08;10.13;;;6.88;;
72569;SDS011;60594;50.204;8.844;2022-08-18T16:52:36;12.68;;;8.05;;
72569;SDS011;60594;50.204;8.844;2022-08-18T16:55:03;10.68;;;7.43;;
72569;SDS011;60594;50.204;8.844;2022-08-18T16:57:31;12.43;;;7.65;;
72569;SDS011;60594;50.204;8.844;2022-08-18T17:00:17;11.05;;;7.63;;
72569;SDS011;60594;50.204;8.844;2022-08-18T17:03:04;10.40;;;7.22;;
72569;SDS011;60594;50.204;8.844;2022-08-18T17:05:57;11.70;;;7.88;;
72569;SDS011;60594;50.204;8.844;2022-08-18T17:08:30;12.30;;;8.23;;
72569;SDS011;60594;50.204;8.844;2022-08-18T17:11:03;11.93;;;7.70;;
72569;SDS011;60594;50.204;8.844;2022-08-18T17:13:32;12.10;;;7.97;;
72569;SDS011;60594;50.204;8.844;2022-08-18T17:15:59;12.88;;;7.80;;
72569;SDS011;60594;50.204;8.844;2022-08-18T17:18:26;12.77;;;7.75;;
72569;SDS011;60594;50.204;8.844;2022-08-18T17:23:20;10.93;;;6.97;;
72569;SDS011;60594;50.204;8.844;2022-08-18T17:25:46;10.40;;;7.38;;